sensor_id;sensor_type;location;lat;lon;timestamp;temperature;humidity
63317;DHT22;49822;41.468;13.560;2023-05-29T00:01:26;19.00;93.00
63317;DHT22;49822;41.468;13.560;2023-05-29T00:03:52;19.00;92.90
63317;DHT22;49822;41.468;13.560;2023-05-29T00:06:19;19.00;92.90
63317;DHT22;49822;41.468;13.560;2023-05-29T00:08:45;18.90;93.30
63317;DHT22;49822;41.468;13.560;2023-05-29T00:11:11;18.90;92.90
63317;DHT22;49822;41.468;13.560;2023-05-29T00:13:37;18.90;92.80
63317;DHT22;49822;41.468;13.560;2023-05-29T00:16:03;19.00;93.10
63317;DHT22;49822;41.468;13.560;2023-05-29T00:18:30;18.90;93.20
63317;DHT22;49822;41.468;13.560;2023-05-29T00:20:56;18.90;93.30
63317;DHT22;49822;41.468;13.560;2023-05-29T00:23:22;18.90;93.10
63317;DHT22;49822;41.468;13.560;2023-05-29T00:25:48;19.00;93.30
63317;DHT22;49822;41.468;13.560;2023-05-29T00:28:15;18.90;93.20
63317;DHT22;49822;41.468;13.560;2023-05-29T00:30:42;18.90;93.20
63317;DHT22;49822;41.468;13.560;2023-05-29T00:33:09;18.90;93.40
63317;DHT22;49822;41.468;13.560;2023-05-29T00:35:35;18.90;93.30
63317;DHT22;49822;41.468;13.560;2023-05-29T00:38:01;18.80;93.00
63317;DHT22;49822;41.468;13.560;2023-05-29T00:40:27;18.90;93.00
63317;DHT22;49822;41.468;13.560;2023-05-29T00:42:53;18.80;93.00
63317;DHT22;49822;41.468;13.560;2023-05-29T00:45:21;18.80;93.60
63317;DHT22;49822;41.468;13.560;2023-05-29T00:47:50;18.60;93.80
63317;DHT22;49822;41.468;13.560;2023-05-29T00:50:16;18.50;94.30
63317;DHT22;49822;41.468;13.560;2023-05-29T00:52:44;18.30;94.50
63317;DHT22;49822;41.468;13.560;2023-05-29T00:55:11;18.40;94.50
63317;DHT22;49822;41.468;13.560;2023-05-29T00:57:38;18.50;94.10
63317;DHT22;49822;41.468;13.560;2023-05-29T01:00:05;18.50;94.00
63317;DHT22;49822;41.468;13.560;2023-05-29T01:02:36;18.50;93.90
63317;DHT22;49822;41.468;13.560;2023-05-29T01:05:02;18.70;94.00
63317;DHT22;49822;41.468;13.560;2023-05-29T01:07:29;18.70;93.90
63317;DHT22;49822;41.468;13.560;2023-05-29T01:09:55;18.80;93.60
63317;DHT22;49822;41.468;13.560;2023-05-29T01:12:43;18.80;93.50
63317;DHT22;49822;41.468;13.560;2023-05-29T01:21:14;18.70;93.20
63317;DHT22;49822;41.468;13.560;2023-05-29T01:29:14;18.80;93.30
63317;DHT22;49822;41.468;13.560;2023-05-29T01:31:43;18.80;93.40
63317;DHT22;49822;41.468;13.560;2023-05-29T01:34:09;18.70;93.20
63317;DHT22;49822;41.468;13.560;2023-05-29T01:36:36;18.70;93.30
63317;DHT22;49822;41.468;13.560;2023-05-29T01:39:02;18.80;93.20
63317;DHT22;49822;41.468;13.560;2023-05-29T01:41:29;18.80;93.10
63317;DHT22;49822;41.468;13.560;2023-05-29T01:43:57;18.50;93.20
63317;DHT22;49822;41.468;13.560;2023-05-29T01:46:24;18.70;93.30
63317;DHT22;49822;41.468;13.560;2023-05-29T01:48:53;18.70;93.00
63317;DHT22;49822;41.468;13.560;2023-05-29T01:51:22;18.70;92.90
63317;DHT22;49822;41.468;13.560;2023-05-29T01:53:48;18.70;93.00
63317;DHT22;49822;41.468;13.560;2023-05-29T01:56:15;18.60;93.10
63317;DHT22;49822;41.468;13.560;2023-05-29T01:58:42;18.60;93.10
63317;DHT22;49822;41.468;13.560;2023-05-29T02:01:09;18.60;93.00
63317;DHT22;49822;41.468;13.560;2023-05-29T02:03:35;18.60;93.30
63317;DHT22;49822;41.468;13.560;2023-05-29T02:06:02;18.60;92.90
63317;DHT22;49822;41.468;13.560;2023-05-29T02:08:28;18.50;93.00
63317;DHT22;49822;41.468;13.560;2023-05-29T02:10:54;18.50;93.10
63317;DHT22;49822;41.468;13.560;2023-05-29T02:13:22;18.60;93.30
63317;DHT22;49822;41.468;13.560;2023-05-29T02:15:48;18.50;93.30
63317;DHT22;49822;41.468;13.560;2023-05-29T02:18:16;18.40;93.20
63317;DHT22;49822;41.468;13.560;2023-05-29T02:20:46;18.30;93.50
63317;DHT22;49822;41.468;13.560;2023-05-29T02:23:20;18.30;93.50
63317;DHT22;49822;41.468;13.560;2023-05-29T02:25:46;18.40;93.60
63317;DHT22;49822;41.468;13.560;2023-05-29T02:28:13;18.30;93.90
63317;DHT22;49822;41.468;13.560;2023-05-29T02:30:39;17.90;94.80
63317;DHT22;49822;41.468;13.560;2023-05-29T02:33:08;17.70;96.10
63317;DHT22;49822;41.468;13.560;2023-05-29T02:35:35;17.70;96.10
63317;DHT22;49822;41.468;13.560;2023-05-29T02:38:01;17.70;96.00
63317;DHT22;49822;41.468;13.560;2023-05-29T02:40:27;17.80;95.60
63317;DHT22;49822;41.468;13.560;2023-05-29T02:42:53;17.90;95.60
63317;DHT22;49822;41.468;13.560;2023-05-29T02:45:19;18.00;95.60
63317;DHT22;49822;41.468;13.560;2023-05-29T02:47:45;18.10;95.40
63317;DHT22;49822;41.468;13.560;2023-05-29T02:50:11;18.10;94.80
63317;DHT22;49822;41.468;13.560;2023-05-29T02:52:40;18.10;94.70
63317;DHT22;49822;41.468;13.560;2023-05-29T02:55:06;18.00;94.90
63317;DHT22;49822;41.468;13.560;2023-05-29T02:57:32;18.00;94.90
63317;DHT22;49822;41.468;13.560;2023-05-29T02:59:59;18.00;95.00
63317;DHT22;49822;41.468;13.560;2023-05-29T03:02:26;17.90;94.90
63317;DHT22;49822;41.468;13.560;2023-05-29T03:04:52;18.10;94.70
63317;DHT22;49822;41.468;13.560;2023-05-29T03:07:19;18.10;94.70
63317;DHT22;49822;41.468;13.560;2023-05-29T03:09:45;18.10;94.60
63317;DHT22;49822;41.468;13.560;2023-05-29T03:12:11;18.10;94.60
63317;DHT22;49822;41.468;13.560;2023-05-29T03:14:38;18.20;93.70
63317;DHT22;49822;41.468;13.560;2023-05-29T03:17:09;18.20;93.60
63317;DHT22;49822;41.468;13.560;2023-05-29T03:19:35;18.20;93.30
63317;DHT22;49822;41.468;13.560;2023-05-29T03:22:01;18.20;93.30
63317;DHT22;49822;41.468;13.560;2023-05-29T03:24:29;18.20;93.20
63317;DHT22;49822;41.468;13.560;2023-05-29T03:26:55;18.20;93.30
63317;DHT22;49822;41.468;13.560;2023-05-29T03:29:23;18.20;93.30
63317;DHT22;49822;41.468;13.560;2023-05-29T03:31:51;18.10;93.80
63317;DHT22;49822;41.468;13.560;2023-05-29T03:34:23;18.00;93.70
63317;DHT22;49822;41.468;13.560;2023-05-29T03:36:56;18.10;93.50
63317;DHT22;49822;41.468;13.560;2023-05-29T03:39:24;17.90;93.70
63317;DHT22;49822;41.468;13.560;2023-05-29T03:41:50;17.90;93.90
63317;DHT22;49822;41.468;13.560;2023-05-29T03:44:17;17.80;94.40
63317;DHT22;49822;41.468;13.560;2023-05-29T03:46:43;17.60;94.90
63317;DHT22;49822;41.468;13.560;2023-05-29T03:49:10;17.50;95.40
63317;DHT22;49822;41.468;13.560;2023-05-29T03:51:37;17.60;95.70
63317;DHT22;49822;41.468;13.560;2023-05-29T03:54:04;17.60;95.30
63317;DHT22;49822;41.468;13.560;2023-05-29T03:56:30;17.70;95.20
63317;DHT22;49822;41.468;13.560;2023-05-29T03:58:56;17.70;94.80
63317;DHT22;49822;41.468;13.560;2023-05-29T04:01:22;17.80;94.70
63317;DHT22;49822;41.468;13.560;2023-05-29T04:03:49;17.90;94.30
63317;DHT22;49822;41.468;13.560;2023-05-29T04:06:15;17.80;94.00
63317;DHT22;49822;41.468;13.560;2023-05-29T04:08:42;17.80;94.00
63317;DHT22;49822;41.468;13.560;2023-05-29T04:11:08;17.90;94.10
63317;DHT22;49822;41.468;13.560;2023-05-29T04:13:34;17.90;94.20
63317;DHT22;49822;41.468;13.560;2023-05-29T04:16:00;18.00;94.20
63317;DHT22;49822;41.468;13.560;2023-05-29T04:18:26;18.10;93.80
63317;DHT22;49822;41.468;13.560;2023-05-29T04:20:53;18.00;93.50
63317;DHT22;49822;41.468;13.560;2023-05-29T04:23:20;18.00;93.50
63317;DHT22;49822;41.468;13.560;2023-05-29T04:25:46;18.00;93.40
63317;DHT22;49822;41.468;13.560;2023-05-29T04:28:17;18.00;93.50
63317;DHT22;49822;41.468;13.560;2023-05-29T04:30:47;18.10;93.50
63317;DHT22;49822;41.468;13.560;2023-05-29T04:33:14;18.10;93.30
63317;DHT22;49822;41.468;13.560;2023-05-29T04:35:46;18.10;93.10
63317;DHT22;49822;41.468;13.560;2023-05-29T04:38:15;18.10;93.10
63317;DHT22;49822;41.468;13.560;2023-05-29T04:40:42;18.10;93.10
63317;DHT22;49822;41.468;13.560;2023-05-29T04:43:12;18.10;92.90
63317;DHT22;49822;41.468;13.560;2023-05-29T04:45:56;18.10;93.00
63317;DHT22;49822;41.468;13.560;2023-05-29T04:48:24;18.00;93.10
63317;DHT22;49822;41.468;13.560;2023-05-29T04:50:51;18.00;92.90
63317;DHT22;49822;41.468;13.560;2023-05-29T04:53:18;18.10;93.00
63317;DHT22;49822;41.468;13.560;2023-05-29T04:55:44;18.10;93.10
63317;DHT22;49822;41.468;13.560;2023-05-29T04:58:11;18.20;92.50
63317;DHT22;49822;41.468;13.560;2023-05-29T05:00:40;18.30;92.40
63317;DHT22;49822;41.468;13.560;2023-05-29T05:03:07;18.30;92.30
63317;DHT22;49822;41.468;13.560;2023-05-29T05:05:35;18.30;92.50
63317;DHT22;49822;41.468;13.560;2023-05-29T05:08:02;18.50;92.50
63317;DHT22;49822;41.468;13.560;2023-05-29T05:10:28;18.60;92.50
63317;DHT22;49822;41.468;13.560;2023-05-29T05:12:54;18.70;92.50
63317;DHT22;49822;41.468;13.560;2023-05-29T05:15:22;18.80;92.40
63317;DHT22;49822;41.468;13.560;2023-05-29T05:17:48;18.90;92.10
63317;DHT22;49822;41.468;13.560;2023-05-29T05:20:14;18.90;92.10
63317;DHT22;49822;41.468;13.560;2023-05-29T05:22:41;19.00;92.20
63317;DHT22;49822;41.468;13.560;2023-05-29T05:25:08;19.00;91.90
63317;DHT22;49822;41.468;13.560;2023-05-29T05:27:34;19.10;92.00
63317;DHT22;49822;41.468;13.560;2023-05-29T05:30:03;19.20;91.80
63317;DHT22;49822;41.468;13.560;2023-05-29T05:32:30;19.30;91.50
63317;DHT22;49822;41.468;13.560;2023-05-29T05:35:03;19.30;91.30
63317;DHT22;49822;41.468;13.560;2023-05-29T05:37:31;19.40;91.30
63317;DHT22;49822;41.468;13.560;2023-05-29T05:39:57;19.50;91.10
63317;DHT22;49822;41.468;13.560;2023-05-29T05:42:26;19.50;91.10
63317;DHT22;49822;41.468;13.560;2023-05-29T05:45:00;19.50;90.80
63317;DHT22;49822;41.468;13.560;2023-05-29T05:47:27;19.60;90.90
63317;DHT22;49822;41.468;13.560;2023-05-29T05:49:54;19.70;91.50
63317;DHT22;49822;41.468;13.560;2023-05-29T05:52:20;19.70;91.40
63317;DHT22;49822;41.468;13.560;2023-05-29T05:54:46;19.70;91.10
63317;DHT22;49822;41.468;13.560;2023-05-29T05:57:13;19.80;90.50
63317;DHT22;49822;41.468;13.560;2023-05-29T05:59:39;19.70;90.40
63317;DHT22;49822;41.468;13.560;2023-05-29T06:02:06;19.90;90.40
63317;DHT22;49822;41.468;13.560;2023-05-29T06:04:32;20.00;90.30
63317;DHT22;49822;41.468;13.560;2023-05-29T06:07:04;20.00;90.10
63317;DHT22;49822;41.468;13.560;2023-05-29T06:09:30;20.00;88.70
63317;DHT22;49822;41.468;13.560;2023-05-29T06:11:56;20.20;88.50
63317;DHT22;49822;41.468;13.560;2023-05-29T06:14:23;20.30;88.20
63317;DHT22;49822;41.468;13.560;2023-05-29T06:16:49;20.40;88.70
63317;DHT22;49822;41.468;13.560;2023-05-29T06:19:16;20.60;88.80
63317;DHT22;49822;41.468;13.560;2023-05-29T06:21:59;20.70;88.30
63317;DHT22;49822;41.468;13.560;2023-05-29T06:24:27;20.70;87.90
63317;DHT22;49822;41.468;13.560;2023-05-29T06:26:56;20.90;86.90
63317;DHT22;49822;41.468;13.560;2023-05-29T06:29:22;20.90;86.30
63317;DHT22;49822;41.468;13.560;2023-05-29T06:31:48;21.00;86.10
63317;DHT22;49822;41.468;13.560;2023-05-29T06:34:14;21.10;86.10
63317;DHT22;49822;41.468;13.560;2023-05-29T06:36:41;21.10;85.70
63317;DHT22;49822;41.468;13.560;2023-05-29T06:39:07;21.30;86.10
63317;DHT22;49822;41.468;13.560;2023-05-29T06:41:34;21.40;86.70
63317;DHT22;49822;41.468;13.560;2023-05-29T06:44:00;21.40;86.50
63317;DHT22;49822;41.468;13.560;2023-05-29T06:46:26;21.60;86.20
63317;DHT22;49822;41.468;13.560;2023-05-29T06:48:53;21.60;86.10
63317;DHT22;49822;41.468;13.560;2023-05-29T06:51:21;21.70;85.70
63317;DHT22;49822;41.468;13.560;2023-05-29T06:53:53;21.90;85.20
63317;DHT22;49822;41.468;13.560;2023-05-29T06:56:20;21.90;85.80
63317;DHT22;49822;41.468;13.560;2023-05-29T06:58:46;22.10;85.50
63317;DHT22;49822;41.468;13.560;2023-05-29T07:01:14;22.10;85.60
63317;DHT22;49822;41.468;13.560;2023-05-29T07:04:02;22.20;85.40
63317;DHT22;49822;41.468;13.560;2023-05-29T07:06:30;22.20;85.70
63317;DHT22;49822;41.468;13.560;2023-05-29T07:08:56;22.30;86.30
63317;DHT22;49822;41.468;13.560;2023-05-29T07:11:23;22.30;85.80
63317;DHT22;49822;41.468;13.560;2023-05-29T07:13:49;22.30;85.50
63317;DHT22;49822;41.468;13.560;2023-05-29T07:16:15;22.20;85.60
63317;DHT22;49822;41.468;13.560;2023-05-29T07:18:43;22.30;86.30
63317;DHT22;49822;41.468;13.560;2023-05-29T07:21:10;22.40;86.90
63317;DHT22;49822;41.468;13.560;2023-05-29T07:23:37;22.50;86.30
63317;DHT22;49822;41.468;13.560;2023-05-29T07:26:03;22.50;86.20
63317;DHT22;49822;41.468;13.560;2023-05-29T07:28:30;22.60;85.70
63317;DHT22;49822;41.468;13.560;2023-05-29T07:30:57;22.60;85.70
63317;DHT22;49822;41.468;13.560;2023-05-29T07:33:24;22.70;86.70
63317;DHT22;49822;41.468;13.560;2023-05-29T07:35:52;22.80;86.20
63317;DHT22;49822;41.468;13.560;2023-05-29T07:38:19;23.00;86.10
63317;DHT22;49822;41.468;13.560;2023-05-29T07:40:46;23.10;86.10
63317;DHT22;49822;41.468;13.560;2023-05-29T07:43:23;23.20;85.60
63317;DHT22;49822;41.468;13.560;2023-05-29T07:45:55;23.30;84.50
63317;DHT22;49822;41.468;13.560;2023-05-29T07:48:22;23.50;84.60
63317;DHT22;49822;41.468;13.560;2023-05-29T07:50:48;23.50;85.10
63317;DHT22;49822;41.468;13.560;2023-05-29T07:53:15;23.60;84.20
63317;DHT22;49822;41.468;13.560;2023-05-29T07:55:41;23.70;83.40
63317;DHT22;49822;41.468;13.560;2023-05-29T07:58:07;23.80;83.40
63317;DHT22;49822;41.468;13.560;2023-05-29T08:00:38;23.90;82.40
63317;DHT22;49822;41.468;13.560;2023-05-29T08:03:05;23.90;81.30
63317;DHT22;49822;41.468;13.560;2023-05-29T08:05:50;24.00;82.10
63317;DHT22;49822;41.468;13.560;2023-05-29T08:08:18;24.10;81.30
63317;DHT22;49822;41.468;13.560;2023-05-29T08:10:45;24.30;81.40
63317;DHT22;49822;41.468;13.560;2023-05-29T08:13:11;24.50;81.40
63317;DHT22;49822;41.468;13.560;2023-05-29T08:15:40;24.50;81.50
63317;DHT22;49822;41.468;13.560;2023-05-29T08:18:07;24.60;80.50
63317;DHT22;49822;41.468;13.560;2023-05-29T08:20:33;24.80;79.40
63317;DHT22;49822;41.468;13.560;2023-05-29T08:23:00;24.90;79.40
63317;DHT22;49822;41.468;13.560;2023-05-29T08:25:26;24.70;78.80
63317;DHT22;49822;41.468;13.560;2023-05-29T08:27:53;24.60;80.90
63317;DHT22;49822;41.468;13.560;2023-05-29T08:30:20;24.70;79.70
63317;DHT22;49822;41.468;13.560;2023-05-29T08:32:46;24.70;80.00
63317;DHT22;49822;41.468;13.560;2023-05-29T08:35:12;25.00;79.90
63317;DHT22;49822;41.468;13.560;2023-05-29T08:37:38;25.10;79.60
63317;DHT22;49822;41.468;13.560;2023-05-29T08:40:06;25.40;79.60
63317;DHT22;49822;41.468;13.560;2023-05-29T08:42:39;25.50;78.60
63317;DHT22;49822;41.468;13.560;2023-05-29T08:45:13;25.30;77.70
63317;DHT22;49822;41.468;13.560;2023-05-29T08:47:40;25.30;78.60
63317;DHT22;49822;41.468;13.560;2023-05-29T08:50:08;25.20;77.00
63317;DHT22;49822;41.468;13.560;2023-05-29T08:52:35;25.30;78.50
63317;DHT22;49822;41.468;13.560;2023-05-29T08:55:02;25.50;79.20
63317;DHT22;49822;41.468;13.560;2023-05-29T08:57:31;25.50;77.10
63317;DHT22;49822;41.468;13.560;2023-05-29T08:59:59;25.40;78.70
63317;DHT22;49822;41.468;13.560;2023-05-29T09:02:26;25.40;78.80
63317;DHT22;49822;41.468;13.560;2023-05-29T09:04:53;25.60;77.90
63317;DHT22;49822;41.468;13.560;2023-05-29T09:07:20;25.70;78.10
63317;DHT22;49822;41.468;13.560;2023-05-29T09:09:47;26.00;78.10
63317;DHT22;49822;41.468;13.560;2023-05-29T09:12:15;26.10;77.20
63317;DHT22;49822;41.468;13.560;2023-05-29T09:14:42;26.00;75.30
63317;DHT22;49822;41.468;13.560;2023-05-29T09:17:11;26.10;76.00
63317;DHT22;49822;41.468;13.560;2023-05-29T09:19:38;26.30;76.80
63317;DHT22;49822;41.468;13.560;2023-05-29T09:22:10;26.40;74.80
63317;DHT22;49822;41.468;13.560;2023-05-29T09:24:39;26.50;74.60
63317;DHT22;49822;41.468;13.560;2023-05-29T09:27:06;26.60;73.80
63317;DHT22;49822;41.468;13.560;2023-05-29T09:29:41;26.60;74.30
63317;DHT22;49822;41.468;13.560;2023-05-29T09:32:15;26.90;75.30
63317;DHT22;49822;41.468;13.560;2023-05-29T09:34:45;27.10;73.80
63317;DHT22;49822;41.468;13.560;2023-05-29T09:37:12;27.10;73.90
63317;DHT22;49822;41.468;13.560;2023-05-29T09:42:09;27.30;72.90
63317;DHT22;49822;41.468;13.560;2023-05-29T09:44:35;27.20;69.00
63317;DHT22;49822;41.468;13.560;2023-05-29T09:47:01;27.30;71.30
63317;DHT22;49822;41.468;13.560;2023-05-29T09:49:28;27.40;67.60
63317;DHT22;49822;41.468;13.560;2023-05-29T09:51:57;27.40;69.40
63317;DHT22;49822;41.468;13.560;2023-05-29T09:54:27;27.40;69.40
63317;DHT22;49822;41.468;13.560;2023-05-29T09:56:58;27.20;69.50
63317;DHT22;49822;41.468;13.560;2023-05-29T09:59:24;27.10;70.70
63317;DHT22;49822;41.468;13.560;2023-05-29T10:02:00;26.90;70.80
63317;DHT22;49822;41.468;13.560;2023-05-29T10:04:30;26.90;69.30
63317;DHT22;49822;41.468;13.560;2023-05-29T10:07:03;26.90;67.90
63317;DHT22;49822;41.468;13.560;2023-05-29T10:09:33;26.60;68.50
63317;DHT22;49822;41.468;13.560;2023-05-29T10:12:01;26.50;68.10
63317;DHT22;49822;41.468;13.560;2023-05-29T10:14:31;26.40;67.80
63317;DHT22;49822;41.468;13.560;2023-05-29T10:17:02;26.20;69.60
63317;DHT22;49822;41.468;13.560;2023-05-29T10:19:30;26.00;70.10
63317;DHT22;49822;41.468;13.560;2023-05-29T10:21:57;25.60;69.10
63317;DHT22;49822;41.468;13.560;2023-05-29T10:24:28;25.40;69.60
63317;DHT22;49822;41.468;13.560;2023-05-29T10:26:55;25.30;72.50
63317;DHT22;49822;41.468;13.560;2023-05-29T10:29:45;25.00;75.80
63317;DHT22;49822;41.468;13.560;2023-05-29T10:32:29;24.50;76.20
63317;DHT22;49822;41.468;13.560;2023-05-29T10:35:08;24.20;77.50
63317;DHT22;49822;41.468;13.560;2023-05-29T10:37:58;24.00;77.60
63317;DHT22;49822;41.468;13.560;2023-05-29T10:40:26;23.90;78.20
63317;DHT22;49822;41.468;13.560;2023-05-29T10:42:53;23.90;78.40
63317;DHT22;49822;41.468;13.560;2023-05-29T10:50:46;23.30;77.80
63317;DHT22;49822;41.468;13.560;2023-05-29T10:53:16;23.20;77.00
63317;DHT22;49822;41.468;13.560;2023-05-29T10:55:45;23.00;76.80
63317;DHT22;49822;41.468;13.560;2023-05-29T10:58:19;22.90;78.30
63317;DHT22;49822;41.468;13.560;2023-05-29T11:00:47;22.80;79.10
63317;DHT22;49822;41.468;13.560;2023-05-29T11:03:17;22.90;78.10
63317;DHT22;49822;41.468;13.560;2023-05-29T11:06:00;22.90;79.20
63317;DHT22;49822;41.468;13.560;2023-05-29T11:08:47;23.10;79.60
63317;DHT22;49822;41.468;13.560;2023-05-29T11:11:32;23.20;80.00
63317;DHT22;49822;41.468;13.560;2023-05-29T11:14:06;23.10;80.80
63317;DHT22;49822;41.468;13.560;2023-05-29T11:19:03;23.10;82.50
63317;DHT22;49822;41.468;13.560;2023-05-29T11:21:29;23.10;81.60
63317;DHT22;49822;41.468;13.560;2023-05-29T11:23:59;23.10;81.00
63317;DHT22;49822;41.468;13.560;2023-05-29T11:26:27;23.00;81.10
63317;DHT22;49822;41.468;13.560;2023-05-29T11:28:57;23.00;80.30
63317;DHT22;49822;41.468;13.560;2023-05-29T11:31:24;22.90;80.80
63317;DHT22;49822;41.468;13.560;2023-05-29T11:33:54;23.00;80.90
63317;DHT22;49822;41.468;13.560;2023-05-29T11:36:21;22.90;80.60
63317;DHT22;49822;41.468;13.560;2023-05-29T11:38:47;23.00;80.70
63317;DHT22;49822;41.468;13.560;2023-05-29T11:41:14;22.90;80.80
63317;DHT22;49822;41.468;13.560;2023-05-29T11:43:42;23.00;80.00
63317;DHT22;49822;41.468;13.560;2023-05-29T11:46:19;23.10;79.90
63317;DHT22;49822;41.468;13.560;2023-05-29T11:48:46;23.10;78.80
63317;DHT22;49822;41.468;13.560;2023-05-29T11:51:12;23.20;79.10
63317;DHT22;49822;41.468;13.560;2023-05-29T11:53:43;23.30;79.10
63317;DHT22;49822;41.468;13.560;2023-05-29T11:56:10;23.30;79.20
63317;DHT22;49822;41.468;13.560;2023-05-29T11:58:37;23.20;80.60
63317;DHT22;49822;41.468;13.560;2023-05-29T12:01:05;23.10;81.10
63317;DHT22;49822;41.468;13.560;2023-05-29T12:03:41;23.00;82.20
63317;DHT22;49822;41.468;13.560;2023-05-29T12:06:08;22.70;82.70
63317;DHT22;49822;41.468;13.560;2023-05-29T12:08:37;22.80;82.30
63317;DHT22;49822;41.468;13.560;2023-05-29T12:11:03;22.80;82.60
63317;DHT22;49822;41.468;13.560;2023-05-29T12:13:30;22.90;82.60
63317;DHT22;49822;41.468;13.560;2023-05-29T12:16:04;22.90;82.30
63317;DHT22;49822;41.468;13.560;2023-05-29T12:18:31;22.60;81.70
63317;DHT22;49822;41.468;13.560;2023-05-29T12:20:59;22.40;81.70
63317;DHT22;49822;41.468;13.560;2023-05-29T12:23:25;22.30;81.40
63317;DHT22;49822;41.468;13.560;2023-05-29T12:25:51;21.70;80.30
63317;DHT22;49822;41.468;13.560;2023-05-29T12:28:21;21.50;81.10
63317;DHT22;49822;41.468;13.560;2023-05-29T12:30:49;21.50;79.50
63317;DHT22;49822;41.468;13.560;2023-05-29T12:33:32;21.50;79.60
63317;DHT22;49822;41.468;13.560;2023-05-29T12:36:05;21.40;81.10
63317;DHT22;49822;41.468;13.560;2023-05-29T12:38:47;20.90;79.00
63317;DHT22;49822;41.468;13.560;2023-05-29T12:43:54;20.30;79.60
63317;DHT22;49822;41.468;13.560;2023-05-29T12:46:21;20.10;79.80
63317;DHT22;49822;41.468;13.560;2023-05-29T12:48:47;20.10;79.80
63317;DHT22;49822;41.468;13.560;2023-05-29T12:51:13;20.10;80.40
63317;DHT22;49822;41.468;13.560;2023-05-29T12:53:39;20.00;79.90
63317;DHT22;49822;41.468;13.560;2023-05-29T12:56:05;20.00;80.10
63317;DHT22;49822;41.468;13.560;2023-05-29T12:58:31;20.20;80.80
63317;DHT22;49822;41.468;13.560;2023-05-29T13:00:57;20.40;80.20
63317;DHT22;49822;41.468;13.560;2023-05-29T13:03:24;20.50;80.70
63317;DHT22;49822;41.468;13.560;2023-05-29T13:05:51;20.80;81.00
63317;DHT22;49822;41.468;13.560;2023-05-29T13:08:17;21.00;80.50
63317;DHT22;49822;41.468;13.560;2023-05-29T13:10:44;21.10;78.40
63317;DHT22;49822;41.468;13.560;2023-05-29T13:13:10;21.10;79.90
63317;DHT22;49822;41.468;13.560;2023-05-29T13:15:38;21.10;78.70
63317;DHT22;49822;41.468;13.560;2023-05-29T13:18:06;20.90;79.50
63317;DHT22;49822;41.468;13.560;2023-05-29T13:20:32;20.70;79.30
63317;DHT22;49822;41.468;13.560;2023-05-29T13:22:58;20.80;79.90
63317;DHT22;49822;41.468;13.560;2023-05-29T13:25:24;20.90;80.00
63317;DHT22;49822;41.468;13.560;2023-05-29T13:27:51;21.10;81.10
63317;DHT22;49822;41.468;13.560;2023-05-29T13:30:18;21.20;79.50
63317;DHT22;49822;41.468;13.560;2023-05-29T13:32:44;21.40;79.50
63317;DHT22;49822;41.468;13.560;2023-05-29T13:35:10;21.40;80.80
63317;DHT22;49822;41.468;13.560;2023-05-29T13:37:37;21.60;81.90
63317;DHT22;49822;41.468;13.560;2023-05-29T13:40:07;21.70;81.90
63317;DHT22;49822;41.468;13.560;2023-05-29T13:42:34;21.80;81.30
63317;DHT22;49822;41.468;13.560;2023-05-29T13:45:00;21.90;81.30
63317;DHT22;49822;41.468;13.560;2023-05-29T13:47:26;21.80;81.20
63317;DHT22;49822;41.468;13.560;2023-05-29T13:49:58;21.80;80.90
63317;DHT22;49822;41.468;13.560;2023-05-29T13:52:25;21.60;80.40
63317;DHT22;49822;41.468;13.560;2023-05-29T13:54:51;21.50;79.80
63317;DHT22;49822;41.468;13.560;2023-05-29T13:57:17;21.00;80.10
63317;DHT22;49822;41.468;13.560;2023-05-29T13:59:44;21.00;80.70
63317;DHT22;49822;41.468;13.560;2023-05-29T14:02:11;21.20;80.70
63317;DHT22;49822;41.468;13.560;2023-05-29T14:04:38;21.10;80.80
63317;DHT22;49822;41.468;13.560;2023-05-29T14:07:05;21.10;81.00
63317;DHT22;49822;41.468;13.560;2023-05-29T14:09:31;21.20;81.30
63317;DHT22;49822;41.468;13.560;2023-05-29T14:11:58;21.10;81.60
63317;DHT22;49822;41.468;13.560;2023-05-29T14:14:25;21.30;81.80
63317;DHT22;49822;41.468;13.560;2023-05-29T14:16:52;21.20;82.00
63317;DHT22;49822;41.468;13.560;2023-05-29T14:19:20;21.20;82.00
63317;DHT22;49822;41.468;13.560;2023-05-29T14:21:46;21.40;82.80
63317;DHT22;49822;41.468;13.560;2023-05-29T14:24:13;21.60;82.30
63317;DHT22;49822;41.468;13.560;2023-05-29T14:26:39;21.70;81.50
63317;DHT22;49822;41.468;13.560;2023-05-29T14:29:07;21.80;81.30
63317;DHT22;49822;41.468;13.560;2023-05-29T14:31:33;21.90;80.30
63317;DHT22;49822;41.468;13.560;2023-05-29T14:33:59;21.80;80.30
63317;DHT22;49822;41.468;13.560;2023-05-29T14:36:25;21.90;81.20
63317;DHT22;49822;41.468;13.560;2023-05-29T14:38:51;22.00;81.40
63317;DHT22;49822;41.468;13.560;2023-05-29T14:41:18;22.10;80.80
63317;DHT22;49822;41.468;13.560;2023-05-29T14:43:44;22.20;80.50
63317;DHT22;49822;41.468;13.560;2023-05-29T14:46:10;22.20;80.00
63317;DHT22;49822;41.468;13.560;2023-05-29T14:48:37;22.00;81.00
63317;DHT22;49822;41.468;13.560;2023-05-29T14:51:03;21.90;80.30
63317;DHT22;49822;41.468;13.560;2023-05-29T14:53:29;22.00;80.20
63317;DHT22;49822;41.468;13.560;2023-05-29T14:55:57;21.80;80.00
63317;DHT22;49822;41.468;13.560;2023-05-29T14:58:23;21.60;79.80
63317;DHT22;49822;41.468;13.560;2023-05-29T15:00:50;21.60;80.50
63317;DHT22;49822;41.468;13.560;2023-05-29T15:03:17;21.70;80.40
63317;DHT22;49822;41.468;13.560;2023-05-29T15:05:43;21.60;80.50
63317;DHT22;49822;41.468;13.560;2023-05-29T15:08:09;21.70;80.50
63317;DHT22;49822;41.468;13.560;2023-05-29T15:10:35;21.70;80.10
63317;DHT22;49822;41.468;13.560;2023-05-29T15:13:01;21.90;80.70
63317;DHT22;49822;41.468;13.560;2023-05-29T15:15:31;22.10;80.20
63317;DHT22;49822;41.468;13.560;2023-05-29T15:17:58;22.10;80.10
63317;DHT22;49822;41.468;13.560;2023-05-29T15:20:26;22.10;80.20
63317;DHT22;49822;41.468;13.560;2023-05-29T15:22:53;22.30;80.10
63317;DHT22;49822;41.468;13.560;2023-05-29T15:25:20;22.20;79.60
63317;DHT22;49822;41.468;13.560;2023-05-29T15:27:47;22.40;80.30
63317;DHT22;49822;41.468;13.560;2023-05-29T15:30:15;22.40;79.70
63317;DHT22;49822;41.468;13.560;2023-05-29T15:32:43;22.50;79.00
63317;DHT22;49822;41.468;13.560;2023-05-29T15:35:13;22.50;79.30
63317;DHT22;49822;41.468;13.560;2023-05-29T15:37:41;22.50;79.40
63317;DHT22;49822;41.468;13.560;2023-05-29T15:40:08;22.70;79.30
63317;DHT22;49822;41.468;13.560;2023-05-29T15:42:38;22.80;79.10
63317;DHT22;49822;41.468;13.560;2023-05-29T15:45:06;22.90;79.30